Time;durP1;ratioP1;P1;durP2;ratioP2;P2;SDS_P1;SDS_P2;PMS_P1;PMS_P2;Temp;Humidity;BMP_temperature;BMP_pressure;BME280_temperature;BME280_humidity;BME280_pressure;Samples;Min_cycle;Max_cycle;Signal;HPM_P1;HPM_P2
2023/07/11 00:01:31;;;;;;;3.65;2.28;;;;;;;17.76;100.00;101733.84;5075076;27;20062;-89
2023/07/11 00:04:17;;;;;;;4.80;2.15;;;;;;;17.77;100.00;101735.56;5113203;27;20594;-88
2023/07/11 00:07:03;;;;;;;4.78;2.03;;;;;;;17.77;100.00;101737.38;5077406;27;20046;-88
2023/07/11 00:09:49;;;;;;;5.07;2.40;;;;;;;17.76;100.00;101739.19;5111037;27;20035;-88
2023/07/11 00:12:35;;;;;;;3.28;2.13;;;;;;;17.73;100.00;101734.03;5094427;27;20031;-87
2023/07/11 00:15:20;;;;;;;3.67;2.47;;;;;;;17.72;100.00;101735.00;5095212;27;20130;-87
2023/07/11 00:18:06;;;;;;;4.60;2.42;;;;;;;17.71;100.00;101735.94;5094872;27;20038;-88
2023/07/11 00:20:52;;;;;;;2.20;2.00;;;;;;;17.68;100.00;101733.47;5094994;27;20131;-86
2023/07/11 00:23:40;;;;;;;3.17;2.17;;;;;;;17.65;100.00;101734.50;5108449;27;20114;-89
2023/07/11 00:26:25;;;;;;;5.47;2.30;;;;;;;17.65;100.00;101728.28;5099319;27;20912;-89
2023/07/11 00:29:29;;;;;;;4.25;1.95;;;;;;;17.64;100.00;101719.41;5111337;27;20601;-87
2023/07/11 00:32:15;;;;;;;4.78;2.45;;;;;;;17.67;100.00;101717.47;5096696;27;20122;-88
2023/07/11 00:35:01;;;;;;;2.63;2.08;;;;;;;17.68;100.00;101714.72;5081730;27;20133;-87
2023/07/11 00:37:47;;;;;;;3.92;2.03;;;;;;;17.71;100.00;101713.66;5085820;27;20047;-87
2023/07/11 00:40:39;;;;;;;5.05;2.33;;;;;;;17.72;100.00;101708.22;5084504;27;20440;-88
2023/07/11 00:43:25;;;;;;;5.70;2.13;;;;;;;17.74;100.00;101716.13;5080735;27;20578;-88
2023/07/11 00:46:13;;;;;;;4.75;1.83;;;;;;;17.74;100.00;101711.66;5098343;27;20300;-87
2023/07/11 00:49:00;;;;;;;4.22;2.25;;;;;;;17.75;100.00;101699.97;5097399;27;20063;-87
2023/07/11 00:51:50;;;;;;;2.70;1.90;;;;;;;17.74;100.00;101692.03;5095683;27;20039;-87
2023/07/11 00:54:37;;;;;;;5.28;2.30;;;;;;;17.71;100.00;101679.69;5070885;27;20075;-86
2023/07/11 00:57:24;;;;;;;3.75;2.20;;;;;;;17.69;100.00;101684.28;5082839;27;20039;-87
2023/07/11 01:00:11;;;;;;;4.00;2.10;;;;;;;17.65;100.00;101685.44;5081028;27;20447;-89
2023/07/11 01:02:56;;;;;;;3.50;2.33;;;;;;;17.58;100.00;101676.06;5106812;27;20042;-87
2023/07/11 01:05:42;;;;;;;4.25;2.30;;;;;;;17.51;100.00;101671.13;5091507;28;20039;-88
2023/07/11 01:08:28;;;;;;;4.47;2.70;;;;;;;17.49;100.00;101678.38;5089717;27;21962;-88
2023/07/11 01:11:14;;;;;;;5.88;2.20;;;;;;;17.47;100.00;101672.25;5084195;27;20028;-88
2023/07/11 01:14:00;;;;;;;3.15;2.10;;;;;;;17.45;100.00;101660.78;5080041;27;20036;-87
2023/07/11 01:16:46;;;;;;;3.28;2.50;;;;;;;17.40;100.00;101660.22;5095131;27;20032;-87
2023/07/11 01:19:31;;;;;;;3.70;2.65;;;;;;;17.36;100.00;101658.66;5079488;27;20041;-88
2023/07/11 01:22:17;;;;;;;6.53;3.15;;;;;;;17.34;100.00;101658.75;5096668;27;20552;-88
2023/07/11 01:25:22;;;;;;;4.32;2.83;;;;;;;17.33;100.00;101657.03;5096345;27;20207;-88
2023/07/11 01:28:08;;;;;;;5.25;3.20;;;;;;;17.31;100.00;101642.03;5099458;27;20040;-87
2023/07/11 01:30:54;;;;;;;5.70;3.53;;;;;;;17.29;100.00;101634.09;5068140;27;20154;-88
2023/07/11 01:33:39;;;;;;;5.10;3.35;;;;;;;17.28;100.00;101627.03;5095183;27;20117;-88
2023/07/11 01:36:25;;;;;;;5.13;3.25;;;;;;;17.28;100.00;101623.50;5095957;27;20042;-89
2023/07/11 01:39:11;;;;;;;4.80;2.88;;;;;;;17.28;100.00;101624.38;5096688;27;20032;-89
2023/07/11 01:41:57;;;;;;;5.55;3.10;;;;;;;17.29;100.00;101617.19;5088342;28;20054;-89
2023/07/11 01:44:42;;;;;;;4.60;3.20;;;;;;;17.29;100.00;101606.47;5099383;27;20092;-90
2023/07/11 01:47:28;;;;;;;5.00;2.88;;;;;;;17.27;100.00;101598.53;5067198;27;20044;-89
2023/07/11 01:50:14;;;;;;;3.47;2.72;;;;;;;17.24;100.00;101594.25;5093237;27;20031;-87
2023/07/11 01:53:00;;;;;;;5.15;3.08;;;;;;;17.26;100.00;101596.81;5097661;27;20066;-88
2023/07/11 01:56:01;;;;;;;3.72;2.55;;;;;;;17.27;100.00;101593.19;5081785;27;20031;-88
2023/07/11 01:58:47;;;;;;;4.63;2.50;;;;;;;17.26;100.00;101585.28;5095402;27;20078;-88
2023/07/11 02:01:33;;;;;;;3.13;2.50;;;;;;;17.26;100.00;101585.28;5097498;27;20057;-88
2023/07/11 02:04:21;;;;;;;5.05;2.42;;;;;;;17.28;100.00;101586.03;5077669;27;20050;-87
2023/07/11 02:07:07;;;;;;;3.95;2.17;;;;;;;17.26;100.00;101580.75;5086114;27;21521;-88
2023/07/11 02:09:53;;;;;;;7.43;2.45;;;;;;;17.24;100.00;101575.53;5094262;27;20035;-88
2023/07/11 02:12:39;;;;;;;2.30;2.10;;;;;;;17.23;100.00;101575.63;5096899;27;20036;-88
2023/07/11 02:15:24;;;;;;;4.40;2.50;;;;;;;17.23;100.00;101570.28;5095083;27;21025;-87
2023/07/11 02:18:10;;;;;;;3.95;2.83;;;;;;;17.21;100.00;101575.72;5079209;27;20043;-88
2023/07/11 02:20:56;;;;;;;4.07;2.53;;;;;;;17.18;100.00;101567.88;5091874;27;20574;-88
2023/07/11 02:23:42;;;;;;;4.28;2.70;;;;;;;17.17;100.00;101567.97;5092597;27;20532;-89
2023/07/11 02:26:28;;;;;;;6.65;2.65;;;;;;;17.16;100.00;101564.44;5096133;27;20032;-89
2023/07/11 02:29:14;;;;;;;3.17;2.33;;;;;;;17.15;100.00;101561.88;5080778;27;20650;-88
2023/07/11 02:32:00;;;;;;;4.97;2.50;;;;;;;17.15;100.00;101564.53;5065258;27;20490;-88
2023/07/11 02:34:46;;;;;;;4.65;2.10;;;;;;;17.13;100.00;101567.31;5096501;27;20059;-89
2023/07/11 02:37:32;;;;;;;5.95;2.35;;;;;;;17.12;100.00;101562.03;5096378;27;20035;-89
2023/07/11 02:40:18;;;;;;;6.22;2.70;;;;;;;17.09;100.00;101552.38;5081232;27;20086;-87
2023/07/11 02:43:04;;;;;;;3.42;2.33;;;;;;;17.10;100.00;101551.44;5096722;27;20163;-88
2023/07/11 02:45:51;;;;;;;5.22;2.28;;;;;;;17.12;100.00;101546.88;5094615;27;20035;-87
2023/07/11 02:48:36;;;;;;;3.92;2.28;;;;;;;17.13;100.00;101535.19;5096508;27;20035;-87
2023/07/11 02:51:23;;;;;;;3.35;2.40;;;;;;;17.16;100.00;101521.63;5096171;27;20474;-88
2023/07/11 02:54:09;;;;;;;4.57;2.40;;;;;;;17.18;100.00;101517.06;5067127;27;20039;-87
2023/07/11 02:56:55;;;;;;;4.50;2.58;;;;;;;17.18;100.00;101521.53;5079657;28;20403;-88
2023/07/11 02:59:40;;;;;;;3.55;2.40;;;;;;;17.17;100.00;101517.97;5094429;27;20040;-91
2023/07/11 03:02:26;;;;;;;4.38;2.60;;;;;;;17.15;100.00;101509.22;5099493;27;20082;-88
2023/07/11 03:05:12;;;;;;;3.70;2.35;;;;;;;17.14;100.00;101502.13;5071070;28;20082;-89
2023/07/11 03:07:58;;;;;;;4.00;2.70;;;;;;;17.14;100.00;101488.75;5081151;27;20032;-90
2023/07/11 03:10:44;;;;;;;3.78;2.28;;;;;;;17.13;100.00;101487.06;5077230;28;20134;-89
2023/07/11 03:13:30;;;;;;;3.25;2.40;;;;;;;17.12;100.00;101485.34;5063676;28;20456;-89
2023/07/11 03:16:16;;;;;;;4.45;2.75;;;;;;;17.11;100.00;101480.94;5056975;28;20031;-90
2023/07/11 03:19:01;;;;;;;6.30;3.08;;;;;;;17.12;100.00;101482.66;5068255;28;20031;-88
2023/07/11 03:21:48;;;;;;;4.55;3.47;;;;;;;17.12;100.00;101479.97;5107872;28;20020;-89
2023/07/11 03:24:34;;;;;;;3.80;3.10;;;;;;;17.10;100.00;101477.41;5101892;28;20475;-89
2023/07/11 03:27:20;;;;;;;4.90;3.30;;;;;;;17.10;100.00;101468.50;5095846;28;20035;-88
2023/07/11 03:30:06;;;;;;;6.78;3.28;;;;;;;17.07;100.00;101474.94;5083869;28;20203;-89
2023/07/11 03:32:52;;;;;;;4.30;3.05;;;;;;;17.04;100.00;101464.41;5070194;28;20039;-88
2023/07/11 03:35:38;;;;;;;6.65;2.95;;;;;;;17.03;100.00;101467.19;5068349;28;20043;-89
2023/07/11 03:38:24;;;;;;;4.90;2.95;;;;;;;16.99;100.00;101460.28;5081720;28;20088;-87
2023/07/11 03:41:09;;;;;;;6.03;3.22;;;;;;;16.93;100.00;101449.00;5096350;28;20035;-87
2023/07/11 03:43:55;;;;;;;5.38;3.38;;;;;;;16.93;100.00;101445.47;5078669;28;20043;-88
2023/07/11 03:46:41;;;;;;;5.50;3.20;;;;;;;16.87;100.00;101436.03;5078933;28;20032;-89
2023/07/11 03:49:26;;;;;;;5.88;3.13;;;;;;;16.84;100.00;101438.91;5053561;28;20162;-88
2023/07/11 03:52:12;;;;;;;6.35;3.28;;;;;;;16.80;100.00;101437.38;5078787;28;20169;-89
2023/07/11 03:54:58;;;;;;;6.90;3.40;;;;;;;16.81;100.00;101433.72;5068013;28;20403;-88
2023/07/11 03:57:44;;;;;;;7.82;3.65;;;;;;;16.78;100.00;101437.44;5076281;28;20058;-88
2023/07/11 04:00:29;;;;;;;7.68;3.42;;;;;;;16.78;100.00;101436.63;5077972;28;20040;-89
2023/07/11 04:03:15;;;;;;;4.30;3.05;;;;;;;16.77;100.00;101430.41;5073092;28;20035;-89
2023/07/11 04:06:01;;;;;;;6.47;3.60;;;;;;;16.80;100.00;101429.34;5062162;27;20086;-88
2023/07/11 04:08:47;;;;;;;5.82;3.50;;;;;;;16.79;100.00;101417.78;5069316;27;20050;-88
2023/07/11 04:11:33;;;;;;;5.30;3.35;;;;;;;16.77;100.00;101410.84;5098340;27;20066;-87
2023/07/11 04:14:18;;;;;;;6.93;3.55;;;;;;;16.76;100.00;101407.28;5068218;27;20039;-87
2023/07/11 04:17:04;;;;;;;7.75;3.67;;;;;;;16.72;100.00;101396.91;5083647;27;20070;-88
2023/07/11 04:19:50;;;;;;;6.15;3.67;;;;;;;16.68;100.00;101391.72;5083840;27;20070;-89
2023/07/11 04:22:37;;;;;;;5.80;3.80;;;;;;;16.67;100.00;101392.69;5081206;27;20032;-88
2023/07/11 04:25:22;;;;;;;5.70;3.83;;;;;;;16.62;100.00;101388.59;5080640;27;20850;-88
2023/07/11 04:28:08;;;;;;;6.07;3.70;;;;;;;16.62;100.00;101386.75;5066501;27;20038;-87
2023/07/11 04:30:54;;;;;;;5.00;3.92;;;;;;;16.62;100.00;101384.09;5098676;27;20078;-87
2023/07/11 04:33:42;;;;;;;4.70;3.67;;;;;;;16.61;100.00;101381.53;5083604;27;20039;-88
2023/07/11 04:36:28;;;;;;;7.38;3.95;;;;;;;16.60;100.00;101369.13;5082164;27;20043;-89
2023/07/11 04:39:13;;;;;;;5.63;3.92;;;;;;;16.59;100.00;101362.03;5094961;27;21973;-89
2023/07/11 04:42:02;;;;;;;7.05;3.60;;;;;;;16.59;100.00;101368.25;5065980;27;20027;-88
2023/07/11 04:44:47;;;;;;;6.22;4.38;;;;;;;16.58;100.00;101366.53;5097076;27;20600;-89
2023/07/11 04:47:34;;;;;;;5.75;4.05;;;;;;;16.57;100.00;101359.47;5071842;27;20059;-89
2023/07/11 04:50:20;;;;;;;6.82;3.85;;;;;;;16.58;100.00;101360.31;5064557;27;20134;-88
2023/07/11 04:53:05;;;;;;;7.00;4.18;;;;;;;16.59;100.00;101356.69;5057126;27;20065;-89
2023/07/11 04:55:58;;;;;;;6.05;4.05;;;;;;;16.61;100.00;101352.13;5070257;27;20498;-88
2023/07/11 04:58:44;;;;;;;8.50;4.50;;;;;;;16.63;100.00;101345.75;5084016;27;20109;-88
2023/07/11 05:01:30;;;;;;;7.20;4.18;;;;;;;16.68;100.00;101338.25;5101038;27;20085;-89
2023/07/11 05:04:16;;;;;;;7.43;4.70;;;;;;;16.76;100.00;101342.25;5092543;27;20055;-89
2023/07/11 05:07:03;;;;;;;7.00;4.32;;;;;;;16.81;100.00;101338.34;5092469;27;20488;-89
2023/07/11 05:09:49;;;;;;;5.95;5.10;;;;;;;16.90;100.00;101339.59;5093347;27;20039;-87
2023/07/11 05:12:35;;;;;;;7.78;4.93;;;;;;;16.99;100.00;101338.09;5082785;27;20044;-89
2023/07/11 05:15:21;;;;;;;8.38;4.60;;;;;;;17.09;100.00;101333.91;5081324;27;20134;-87
2023/07/11 05:18:06;;;;;;;6.72;4.53;;;;;;;17.18;100.00;101332.47;5095614;27;20048;-87
2023/07/11 05:20:56;;;;;;;6.45;5.15;;;;;;;17.32;100.00;101322.66;5066934;27;20492;-89
2023/07/11 05:23:42;;;;;;;6.30;4.60;;;;;;;17.42;100.00;101315.72;5094025;27;20043;-88
2023/07/11 05:26:28;;;;;;;7.15;4.85;;;;;;;17.53;100.00;101319.50;5079205;27;20043;-87
2023/07/11 05:29:14;;;;;;;9.48;4.90;;;;;;;17.61;100.00;101319.84;5099143;27;20139;-87
2023/07/11 05:31:59;;;;;;;6.22;4.25;;;;;;;17.67;100.00;101316.75;5097738;27;20035;-89
2023/07/11 05:34:45;;;;;;;8.90;4.75;;;;;;;17.72;100.00;101311.06;5071721;27;20115;-88
2023/07/11 05:37:31;;;;;;;6.28;4.15;;;;;;;17.75;100.00;101314.38;5101292;27;20042;-89
2023/07/11 05:40:17;;;;;;;5.32;4.65;;;;;;;17.78;100.00;101311.50;5080888;27;20086;-89
2023/07/11 05:43:02;;;;;;;6.75;4.95;;;;;;;17.81;100.00;101290.84;5079688;27;20030;-88
2023/07/11 05:45:48;;;;;;;8.98;5.20;;;;;;;17.84;100.00;101290.63;5093519;27;20043;-87
2023/07/11 05:48:34;;;;;;;10.98;4.47;;;;;;;17.91;100.00;101290.09;5098579;27;20062;-88
2023/07/11 05:51:20;;;;;;;5.75;4.82;;;;;;;18.00;100.00;101287.72;5105915;27;20034;-89
2023/07/11 05:54:06;;;;;;;6.53;4.70;;;;;;;18.05;100.00;101283.78;5073078;27;20026;-87
2023/07/11 05:56:54;;;;;;;7.72;5.10;;;;;;;18.15;100.00;101275.97;5100082;27;20469;-88
2023/07/11 05:59:40;;;;;;;6.35;4.82;;;;;;;18.27;100.00;101278.75;5062503;27;20137;-86
2023/07/11 06:02:26;;;;;;;7.28;4.78;;;;;;;18.39;100.00;101285.03;5095613;27;20050;-87
2023/07/11 06:05:12;;;;;;;6.82;4.80;;;;;;;18.57;100.00;101280.16;5094165;27;20054;-86
2023/07/11 06:08:05;;;;;;;6.50;5.25;;;;;;;18.76;100.00;101273.47;5078006;27;20043;-88
2023/07/11 06:10:51;;;;;;;8.80;5.35;;;;;;;18.93;100.00;101270.41;5067835;27;20055;-86
2023/07/11 06:13:39;;;;;;;7.53;5.20;;;;;;;19.07;100.00;101263.19;5094471;27;20069;-88
2023/07/11 06:16:24;;;;;;;7.72;5.38;;;;;;;19.16;100.00;101257.09;5083346;27;20043;-86
2023/07/11 06:19:10;;;;;;;8.35;5.60;;;;;;;19.22;100.00;101251.28;5064114;27;20047;-87
2023/07/11 06:21:56;;;;;;;8.07;5.80;;;;;;;19.28;100.00;101255.31;5080082;27;20386;-86
2023/07/11 06:24:41;;;;;;;8.00;6.25;;;;;;;19.31;100.00;101255.09;5078448;27;20043;-87
2023/07/11 06:27:27;;;;;;;7.72;5.65;;;;;;;19.41;100.00;101249.88;5098703;27;20048;-88
2023/07/11 06:30:13;;;;;;;10.38;6.07;;;;;;;19.47;100.00;101251.22;5069656;27;20080;-87
2023/07/11 06:32:59;;;;;;;9.35;6.07;;;;;;;19.49;100.00;101247.44;5068240;27;20110;-88
2023/07/11 06:35:50;;;;;;;10.48;6.22;;;;;;;19.57;100.00;101252.25;5091922;27;21001;-87
2023/07/11 06:38:36;;;;;;;8.35;6.25;;;;;;;19.64;100.00;101245.41;5096478;27;20046;-88
2023/07/11 06:41:22;;;;;;;8.27;6.30;;;;;;;19.78;100.00;101243.47;5074624;27;20118;-87
2023/07/11 06:44:08;;;;;;;8.48;6.20;;;;;;;19.86;100.00;101248.22;5068808;28;20039;-88
2023/07/11 06:46:56;;;;;;;10.10;5.75;;;;;;;19.92;100.00;101239.69;5083972;27;20040;-88
2023/07/11 06:49:43;;;;;;;7.80;6.00;;;;;;;20.03;100.00;101242.41;5070765;27;20051;-87
2023/07/11 06:52:29;;;;;;;8.52;5.90;;;;;;;20.16;100.00;101239.59;5072609;27;20039;-88
2023/07/11 06:55:15;;;;;;;9.35;6.30;;;;;;;20.24;100.00;101230.06;5082525;27;20047;-88
2023/07/11 06:58:01;;;;;;;7.38;5.57;;;;;;;20.30;100.00;101240.31;5072611;27;20046;-87
2023/07/11 07:01:01;;;;;;;7.90;6.38;;;;;;;20.34;100.00;101236.41;5087830;28;20058;-85
2023/07/11 07:03:46;;;;;;;9.38;5.93;;;;;;;20.40;100.00;101230.53;5088465;27;20042;-89
2023/07/11 07:06:32;;;;;;;8.18;5.68;;;;;;;20.49;100.00;101234.31;5076859;27;20101;-89
2023/07/11 07:09:18;;;;;;;7.45;5.45;;;;;;;20.56;100.00;101229.28;5071905;28;20412;-86
2023/07/11 07:12:04;;;;;;;10.20;5.63;;;;;;;20.62;100.00;101223.41;5071786;28;20669;-88
2023/07/11 07:14:50;;;;;;;9.68;5.90;;;;;;;20.70;100.00;101220.91;5101899;27;20406;-87
2023/07/11 07:17:36;;;;;;;7.80;5.22;;;;;;;20.79;100.00;101222.00;5099600;27;20040;-89
2023/07/11 07:20:21;;;;;;;8.57;5.35;;;;;;;20.85;100.00;101212.56;5082495;28;20114;-87
2023/07/11 07:23:09;;;;;;;6.60;4.70;;;;;;;20.89;100.00;101208.66;5080507;28;20048;-86
2023/07/11 07:25:59;;;;;;;7.55;5.30;;;;;;;20.92;100.00;101210.25;5077471;28;20031;-77
2023/07/11 07:28:45;;;;;;;8.23;5.25;;;;;;;20.93;100.00;101210.13;5091193;28;20042;-77
2023/07/11 07:31:31;;;;;;;7.40;4.80;;;;;;;20.99;100.00;101198.84;5082236;28;20058;-76
2023/07/11 07:34:17;;;;;;;7.20;4.65;;;;;;;21.06;100.00;101203.69;5089084;28;20042;-78
2023/07/11 07:37:03;;;;;;;7.15;5.20;;;;;;;21.20;100.00;101208.78;5091842;28;20044;-78
2023/07/11 07:39:48;;;;;;;6.10;4.55;;;;;;;21.39;100.00;101204.47;5090756;28;20054;-78
2023/07/11 07:42:34;;;;;;;4.43;3.92;;;;;;;21.58;100.00;101199.22;5097670;27;20055;-77
2023/07/11 07:45:20;;;;;;;5.85;3.95;;;;;;;21.71;100.00;101192.78;5097941;27;20233;-76
2023/07/11 07:48:05;;;;;;;8.57;4.38;;;;;;;21.87;100.00;101191.44;5081863;27;20036;-78
2023/07/11 07:50:52;;;;;;;5.35;3.88;;;;;;;21.99;100.00;101184.94;5097680;27;20035;-78
2023/07/11 07:53:38;;;;;;;7.40;4.05;;;;;;;22.25;100.00;101184.47;5096218;27;20057;-77
2023/07/11 07:56:24;;;;;;;5.72;3.75;;;;;;;22.52;100.00;101173.06;5094010;27;20118;-77
2023/07/11 07:59:10;;;;;;;4.78;3.40;;;;;;;22.73;100.00;101176.59;5099105;27;20229;-78
2023/07/11 08:01:59;;;;;;;4.15;3.00;;;;;;;22.85;100.00;101167.38;5095197;27;20039;-85
2023/07/11 08:04:47;;;;;;;7.68;3.65;;;;;;;22.99;100.00;101176.03;5073448;27;20080;-82
2023/07/11 08:07:35;;;;;;;8.85;3.58;;;;;;;23.05;100.00;101178.16;5090934;27;20099;-85
2023/07/11 08:10:21;;;;;;;5.78;3.47;;;;;;;23.11;100.00;101177.59;5090566;27;20031;-77
2023/07/11 08:13:06;;;;;;;5.93;3.30;;;;;;;23.17;100.00;101173.44;5102283;27;20475;-82
2023/07/11 08:15:52;;;;;;;3.78;3.20;;;;;;;23.22;100.00;101170.31;5099044;27;21854;-83
2023/07/11 08:18:38;;;;;;;4.55;3.30;;;;;;;23.35;99.56;101160.06;5093578;27;22482;-75
2023/07/11 08:21:24;;;;;;;6.07;3.70;;;;;;;23.51;98.69;101161.28;5094469;27;20609;-83
2023/07/11 08:24:12;;;;;;;3.97;2.90;;;;;;;23.74;97.56;101159.94;5082360;27;20079;-85
2023/07/11 08:27:07;;;;;;;7.20;3.00;;;;;;;24.02;95.41;101156.38;5097937;27;20439;-85
2023/07/11 08:29:55;;;;;;;5.88;3.13;;;;;;;24.28;94.44;101151.13;5082316;27;20059;-85
2023/07/11 08:32:44;;;;;;;4.20;3.13;;;;;;;24.41;93.31;101150.75;5080547;27;20042;-85
2023/07/11 08:35:30;;;;;;;3.72;2.58;;;;;;;24.53;93.50;101148.66;5082569;27;20501;-85
2023/07/11 08:38:16;;;;;;;5.78;3.03;;;;;;;24.58;92.97;101155.47;5083627;27;20146;-86
2023/07/11 08:41:37;;;;;;;5.10;2.88;;;;;;;24.83;90.06;101150.31;5098486;27;20071;-86
2023/07/11 08:44:49;;;;;;;4.88;2.88;;;;;;;24.98;88.53;101150.56;5052682;27;20044;-88
2023/07/11 08:47:48;;;;;;;4.90;2.63;;;;;;;25.16;90.38;101151.41;5081459;27;20028;-90
2023/07/11 08:50:46;;;;;;;4.07;2.20;;;;;;;25.29;89.85;101136.59;5068961;27;20027;-89
2023/07/11 08:53:57;;;;;;;3.05;2.10;;;;;;;25.41;85.43;101134.44;5072145;27;20594;-89
2023/07/11 08:56:44;;;;;;;2.97;2.03;;;;;;;25.54;88.97;101134.88;5078420;27;20046;-78
2023/07/11 08:59:58;;;;;;;3.72;2.00;;;;;;;25.53;85.65;101130.47;5078994;27;20044;-78
2023/07/11 09:03:03;;;;;;;3.05;2.08;;;;;;;25.53;85.87;101133.19;5092417;27;20617;-77
2023/07/11 09:05:59;;;;;;;5.15;1.92;;;;;;;25.65;82.95;101141.88;5092678;27;20053;-76
2023/07/11 09:08:46;;;;;;;3.35;2.17;;;;;;;25.83;86.77;101139.09;5077235;27;20044;-77
2023/07/11 09:11:46;;;;;;;4.88;2.28;;;;;;;26.01;83.13;101138.13;5092212;27;20039;-77
2023/07/11 09:14:48;;;;;;;4.32;1.88;;;;;;;26.21;82.55;101135.13;5093001;27;20431;-76
2023/07/11 09:17:38;;;;;;;5.73;1.90;;;;;;;26.36;84.16;101138.91;5078028;27;20095;-77
2023/07/11 09:20:44;;;;;;;3.38;1.88;;;;;;;26.52;79.28;101137.25;5077954;27;20100;-77
2023/07/11 09:24:03;;;;;;;5.55;2.13;;;;;;;26.69;79.68;101135.38;5079525;27;20035;-77
2023/07/11 09:26:49;;;;;;;4.93;1.95;;;;;;;26.89;81.00;101127.72;5091424;27;20045;-78
2023/07/11 09:29:35;;;;;;;3.47;1.70;;;;;;;27.10;80.62;101131.81;5092364;27;20050;-79
2023/07/11 09:32:31;;;;;;;4.40;2.20;;;;;;;27.12;76.30;101127.03;5076948;27;20483;-78
2023/07/11 09:35:28;;;;;;;3.60;2.10;;;;;;;26.94;73.38;101138.09;5079689;27;20039;-78
2023/07/11 09:38:18;;;;;;;2.88;1.80;;;;;;;26.96;76.76;101130.66;5091640;27;20700;-83
2023/07/11 09:41:27;;;;;;;3.85;2.17;;;;;;;27.00;73.53;101128.44;5093608;27;20057;-79
2023/07/11 09:44:13;;;;;;;3.83;1.98;;;;;;;26.97;75.52;101132.34;5064167;27;20061;-80
2023/07/11 09:47:16;;;;;;;5.25;2.20;;;;;;;26.78;72.74;101131.63;5094174;27;20036;-78
2023/07/11 09:50:15;;;;;;;5.57;2.00;;;;;;;26.65;75.51;101129.44;5092994;27;20487;-78
2023/07/11 09:53:02;;;;;;;2.83;1.80;;;;;;;26.58;76.34;101121.13;5059000;27;20042;-78
2023/07/11 09:55:53;;;;;;;3.13;2.10;;;;;;;26.48;74.27;101111.44;5092309;27;20039;-78
2023/07/11 09:58:40;;;;;;;4.32;2.13;;;;;;;26.38;75.82;101125.16;5091990;27;20157;-78
2023/07/11 10:01:36;;;;;;;3.50;2.05;;;;;;;26.21;75.30;101114.28;5076552;27;20041;-80
2023/07/11 10:04:24;;;;;;;3.75;2.10;;;;;;;26.23;76.05;101124.97;5091064;27;20812;-79
2023/07/11 10:07:13;;;;;;;5.32;2.67;;;;;;;26.36;75.69;101109.06;5092900;27;20126;-78
2023/07/11 10:10:02;;;;;;;4.30;2.13;;;;;;;26.34;74.91;101108.38;5076609;27;20118;-80
2023/07/11 10:12:50;;;;;;;5.53;2.47;;;;;;;26.36;75.28;101108.22;5078693;27;20039;-79
2023/07/11 10:15:35;;;;;;;4.82;2.20;;;;;;;26.42;75.51;101099.41;5074656;27;20031;-79
2023/07/11 10:18:24;;;;;;;3.63;2.03;;;;;;;26.34;76.17;101111.09;5091470;27;20593;-80
2023/07/11 10:21:20;;;;;;;3.83;2.08;;;;;;;26.29;75.82;101108.88;5090111;27;20047;-79
2023/07/11 10:24:14;;;;;;;5.18;2.20;;;;;;;26.16;75.47;101106.63;5090238;27;20063;-79
2023/07/11 10:27:04;;;;;;;5.90;2.58;;;;;;;26.10;74.63;101111.88;5077282;27;20035;-79
2023/07/11 10:29:55;;;;;;;4.97;2.80;;;;;;;25.92;74.13;101109.28;5073795;27;20067;-78
2023/07/11 10:32:49;;;;;;;4.28;2.22;;;;;;;25.86;75.70;101111.63;5066301;27;20101;-80
2023/07/11 10:35:37;;;;;;;3.15;1.92;;;;;;;25.92;75.73;101117.44;5065957;27;20586;-79
2023/07/11 10:38:29;;;;;;;3.22;2.30;;;;;;;26.02;75.92;101118.97;5090315;27;20035;-80
2023/07/11 10:41:23;;;;;;;5.75;2.70;;;;;;;26.13;74.92;101112.38;5077094;27;20043;-80
2023/07/11 10:44:34;;;;;;;3.67;2.40;;;;;;;26.12;74.48;101104.41;5072217;28;20031;-79
2023/07/11 10:47:27;;;;;;;3.42;2.10;;;;;;;26.17;75.93;101097.50;5077861;28;20028;-78
2023/07/11 10:50:24;;;;;;;7.30;2.38;;;;;;;26.27;71.95;101099.22;5078002;27;20116;-82
2023/07/11 10:53:34;;;;;;;4.28;2.33;;;;;;;26.34;74.93;101100.25;5076663;27;20070;-79
2023/07/11 10:56:29;;;;;;;6.68;2.80;;;;;;;26.46;73.77;101084.47;5090501;27;20059;-78
2023/07/11 10:59:18;;;;;;;3.38;2.45;;;;;;;26.51;74.84;101087.53;5075432;27;20039;-78
2023/07/11 11:02:05;;;;;;;5.63;2.30;;;;;;;26.70;74.62;101083.59;5074506;27;20039;-78
2023/07/11 11:05:17;;;;;;;5.88;2.35;;;;;;;26.84;73.61;101081.22;5077957;28;20027;-81
2023/07/11 11:08:10;;;;;;;4.57;2.50;;;;;;;26.87;74.10;101080.03;5075639;27;20198;-78
2023/07/11 11:11:19;;;;;;;;;;;;;;;26.76;70.77;101078.53;5094285;27;20043;-80
2023/07/11 11:14:16;;;;;;;3.58;2.60;;;;;;;26.68;72.04;101087.50;5068203;27;20295;-79
2023/07/11 11:17:25;;;;;;;4.63;2.88;;;;;;;26.57;71.44;101081.41;5064207;28;20197;-78
2023/07/11 11:20:39;;;;;;;5.50;2.42;;;;;;;26.62;72.67;101078.19;5092621;27;20067;-79
2023/07/11 11:23:37;;;;;;;3.55;2.28;;;;;;;26.52;72.24;101078.38;5068508;28;20047;-79
2023/07/11 11:26:46;;;;;;;3.78;2.40;;;;;;;26.50;70.17;101079.53;5093272;28;20028;-80
2023/07/11 11:29:51;;;;;;;3.75;1.95;;;;;;;26.53;71.95;101077.34;5077373;28;20035;-78
2023/07/11 11:32:55;;;;;;;2.65;2.00;;;;;;;26.46;70.52;101073.59;5076202;28;20063;-78
2023/07/11 11:36:13;;;;;;;4.32;1.85;;;;;;;26.35;70.70;101085.66;5089205;28;20039;-78
2023/07/11 11:39:30;;;;;;;4.70;1.90;;;;;;;26.23;70.71;101084.28;5067686;28;20034;-78
2023/07/11 11:42:24;;;;;;;3.22;1.90;;;;;;;26.05;70.02;101077.13;5058186;28;20078;-80
2023/07/11 11:45:17;;;;;;;2.65;1.80;;;;;;;25.94;72.18;101085.56;5091395;28;20035;-83
2023/07/11 11:48:04;;;;;;;2.70;1.70;;;;;;;25.88;73.68;101082.50;5090403;28;20027;-81
2023/07/11 11:50:50;;;;;;;2.75;2.00;;;;;;;25.89;72.66;101081.47;5063595;28;20674;-82
2023/07/11 11:53:43;;;;;;;4.03;2.20;;;;;;;25.81;72.50;101092.28;5089051;28;20027;-79
2023/07/11 11:56:29;;;;;;;3.40;1.60;;;;;;;25.73;72.00;101089.56;5078753;28;20032;-83
2023/07/11 11:59:18;;;;;;;2.45;1.90;;;;;;;25.61;72.54;101084.44;5078664;28;20043;-81
2023/07/11 12:02:17;;;;;;;2.08;1.40;;;;;;;25.62;72.10;101093.44;5064191;28;20189;-82
2023/07/11 12:05:17;;;;;;;3.72;2.00;;;;;;;25.64;71.91;101094.09;5078552;28;20586;-81
2023/07/11 12:08:27;;;;;;;3.38;1.63;;;;;;;25.67;71.38;101101.06;5076795;28;20052;-83
2023/07/11 12:11:18;;;;;;;1.50;1.40;;;;;;;25.54;71.98;101099.66;5090916;28;20047;-82
2023/07/11 12:14:18;;;;;;;2.10;1.70;;;;;;;25.47;71.67;101095.84;5075756;28;20039;-83
2023/07/11 12:17:04;;;;;;;4.18;1.33;;;;;;;25.47;71.71;101095.84;5067771;28;20035;-86
2023/07/11 12:19:59;;;;;;;2.63;1.48;;;;;;;25.35;69.80;101090.75;5089063;28;20040;-82
2023/07/11 12:22:45;;;;;;;1.40;0.90;;;;;;;25.32;70.53;101092.91;5083453;28;20149;-77
2023/07/11 12:25:31;;;;;;;1.63;1.15;;;;;;;25.27;70.03;101097.97;5069480;28;20039;-77
2023/07/11 12:28:23;;;;;;;1.67;1.20;;;;;;;25.28;70.78;101095.09;5084444;27;20047;-78
2023/07/11 12:31:23;;;;;;;1.33;1.02;;;;;;;25.34;70.27;101099.84;5087409;27;20124;-78
2023/07/11 12:34:12;;;;;;;3.03;1.20;;;;;;;25.39;70.76;101099.41;5092925;27;20038;-76
2023/07/11 12:37:02;;;;;;;1.38;0.98;;;;;;;25.39;70.21;101093.97;5066168;27;20576;-77
2023/07/11 12:39:54;;;;;;;2.00;1.10;;;;;;;25.43;71.85;101099.94;5086169;27;20484;-77
2023/07/11 12:42:52;;;;;;;1.40;0.80;;;;;;;25.55;74.01;101093.22;5094452;27;20521;-77
2023/07/11 12:45:39;;;;;;;0.75;0.63;;;;;;;25.67;74.37;101093.78;5090717;27;20039;-77
2023/07/11 12:48:38;;;;;;;2.15;0.70;;;;;;;25.75;75.18;101087.53;5077581;27;20047;-76
2023/07/11 12:51:24;;;;;;;0.63;0.63;;;;;;;25.76;75.77;101092.78;5085970;27;20119;-74
2023/07/11 12:54:09;;;;;;;2.20;0.77;;;;;;;25.68;75.56;101092.78;5072373;27;20039;-75
2023/07/11 12:56:55;;;;;;;1.25;0.80;;;;;;;25.63;76.83;101090.56;5087178;27;20035;-75
2023/07/11 12:59:41;;;;;;;0.90;0.80;;;;;;;25.84;77.62;101091.13;5083846;27;20090;-76
2023/07/11 13:02:29;;;;;;;1.35;0.70;;;;;;;26.12;78.42;101082.72;5091448;27;20043;-77